createdAt,value
2018-04-24T00:00:11.104Z,13
2018-04-24T00:01:10.337Z,12.9
2018-04-24T00:02:09.266Z,12.9
2018-04-24T00:03:08.575Z,12.9
2018-04-24T00:04:07.895Z,12.9
2018-04-24T00:05:07.233Z,12.9
2018-04-24T00:06:05.723Z,12.9
2018-04-24T00:07:05.552Z,12.8
2018-04-24T00:08:04.784Z,12.8
2018-04-24T00:09:03.995Z,12.8
2018-04-24T00:10:03.210Z,12.8
2018-04-24T00:11:02.548Z,12.8
2018-04-24T00:12:01.646Z,12.8
2018-04-24T00:13:00.858Z,12.8
2018-04-24T00:14:00.187Z,12.8
2018-04-24T00:14:59.611Z,12.8
2018-04-24T00:15:58.209Z,12.8
2018-04-24T00:16:57.431Z,12.8
2018-04-24T00:17:56.533Z,12.8
2018-04-24T00:18:56.342Z,12.8
2018-04-24T00:19:55.664Z,12.7
2018-04-24T00:20:54.157Z,12.7
2018-04-24T00:21:53.873Z,12.7
2018-04-24T00:22:53.084Z,12.7
2018-04-24T00:24:51.399Z,12.7
2018-04-24T00:25:50.391Z,12.7
2018-04-24T00:26:50.002Z,12.7
2018-04-24T00:27:49.211Z,12.7
2018-04-24T00:28:48.562Z,12.7
2018-04-24T00:29:47.866Z,12.7
2018-04-24T00:30:47.082Z,12.7
2018-04-24T00:31:45.799Z,12.6
2018-04-24T00:32:45.246Z,12.6
2018-04-24T00:33:15.764Z,12.6
2018-04-24T00:33:46.193Z,12.6
2018-04-24T00:34:17.096Z,12.6
2018-04-24T00:34:47.231Z,12.6
2018-04-24T00:35:17.754Z,12.6
2018-04-24T00:36:42.352Z,12.6
2018-04-24T00:37:40.951Z,12.5
2018-04-24T00:38:40.555Z,12.5
2018-04-24T00:39:39.893Z,12.5
2018-04-24T00:40:39.217Z,12.5
2018-04-24T00:41:38.139Z,12.5
2018-04-24T00:42:37.558Z,12.4
2018-04-24T00:43:36.791Z,12.4
2018-04-24T00:44:07.535Z,12.4
2018-04-24T00:44:37.443Z,12.4
2018-04-24T00:45:07.965Z,12.4
2018-04-24T00:45:38.494Z,12.4
2018-04-24T00:46:08.927Z,12.4
2018-04-24T00:48:32.800Z,12.3
2018-04-24T00:49:31.905Z,12.3
2018-04-24T00:50:31.228Z,12.2
2018-04-24T00:51:30.452Z,12.2
2018-04-24T00:52:29.945Z,12.2
2018-04-24T00:53:28.543Z,12.1
2018-04-24T00:54:27.783Z,12.1
2018-04-24T00:55:27.597Z,12.1
2018-04-24T00:56:26.296Z,12.1
2018-04-24T00:57:25.608Z,12.1
2018-04-24T00:58:24.823Z,12
2018-04-24T00:59:24.147Z,12
2018-04-24T01:00:23.358Z,12
2018-04-24T01:01:22.669Z,12
2018-04-24T01:02:21.984Z,12
2018-04-24T01:03:20.697Z,11.9
2018-04-24T01:04:20.307Z,11.9
2018-04-24T01:05:19.732Z,11.9
2018-04-24T01:06:18.435Z,11.9
2018-04-24T01:07:17.750Z,11.9
2018-04-24T01:08:17.253Z,11.8
2018-04-24T01:09:16.567Z,11.8
2018-04-24T01:10:15.670Z,11.8
2018-04-24T01:11:15.093Z,11.7
2018-04-24T01:12:13.805Z,11.7
2018-04-24T01:13:13.124Z,11.7
2018-04-24T01:14:12.541Z,11.7
2018-04-24T01:14:42.464Z,11.7
2018-04-24T01:15:12.986Z,11.6
2018-04-24T01:15:43.504Z,11.6
2018-04-24T01:16:14.245Z,11.6
2018-04-24T01:17:09.965Z,11.6
2018-04-24T01:18:09.251Z,11.6
2018-04-24T01:19:08.672Z,11.5
2018-04-24T01:20:07.496Z,11.5
2018-04-24T01:21:06.616Z,11.5
2018-04-24T01:22:05.631Z,11.5
2018-04-24T01:23:05.349Z,11.5
2018-04-24T01:24:04.551Z,11.5
2018-04-24T01:25:03.654Z,11.5
2018-04-24T01:25:34.178Z,11.5
2018-04-24T01:26:04.697Z,11.5
2018-04-24T01:27:02.088Z,11.5
2018-04-24T01:28:01.189Z,11.5
2018-04-24T01:29:00.290Z,11.4
2018-04-24T01:29:59.514Z,11.4
2018-04-24T01:30:58.833Z,11.4
2018-04-24T01:31:58.253Z,11.4
2018-04-24T01:32:57.453Z,11.4
2018-04-24T01:33:56.652Z,11.4
2018-04-24T01:35:54.770Z,11.5
2018-04-24T01:36:54.101Z,11.4
2018-04-24T01:37:53.444Z,11.4
2018-04-24T01:38:52.875Z,11.5
2018-04-24T01:39:51.580Z,11.5
2018-04-24T01:49:31.433Z,11.4
2018-04-24T01:49:33.160Z,11.4
2018-04-24T01:50:03.574Z,11.3
2018-04-24T01:50:43.264Z,11.4
2018-04-24T01:51:42.084Z,11.4
2018-04-24T01:52:41.405Z,11.4
2018-04-24T01:53:40.615Z,11.4
2018-04-24T01:54:39.918Z,11.4
2018-04-24T01:55:39.335Z,11.4
2018-04-24T01:56:38.051Z,11.4
2018-04-24T01:57:37.481Z,11.4
2018-04-24T01:58:36.787Z,11.4
2018-04-24T01:59:35.403Z,11.4
2018-04-24T02:00:35.237Z,11.3
2018-04-24T02:01:33.948Z,11.3
2018-04-24T02:02:33.168Z,11.3
2018-04-24T02:03:32.490Z,11.3
2018-04-24T02:04:31.922Z,11.3
2018-04-24T02:05:31.345Z,11.3
2018-04-24T02:06:30.056Z,11.3
2018-04-24T02:07:29.261Z,11.3
2018-04-24T02:08:28.367Z,11.2
2018-04-24T02:09:27.581Z,11.2
2018-04-24T02:09:58.356Z,11.2
2018-04-24T02:11:26.250Z,11.3
2018-04-24T02:11:56.664Z,11.3
2018-04-24T02:13:24.562Z,11.3
2018-04-24T02:14:24.001Z,11.3
2018-04-24T02:15:22.719Z,11.3
2018-04-24T02:16:22.144Z,11.3
2018-04-24T02:19:19.622Z,11.4
2018-04-24T02:19:50.141Z,11.4
2018-04-24T02:24:32.126Z,11.4
2018-04-24T02:24:34.066Z,11.4
2018-04-24T02:25:04.684Z,11.4
2018-04-24T02:26:14.382Z,11.3
2018-04-24T02:27:12.878Z,11.3
2018-04-24T02:28:12.731Z,11.3
2018-04-24T02:29:12.046Z,11.3
2018-04-24T02:30:10.973Z,11.3
2018-04-24T02:32:09.570Z,11.3
2018-04-24T02:33:08.276Z,11.2
2018-04-24T02:34:07.712Z,11.2
2018-04-24T02:35:06.932Z,11.2
2018-04-24T02:36:06.254Z,11.2
2018-04-24T02:37:05.579Z,11.2
2018-04-24T02:39:03.810Z,11.2
2018-04-24T02:40:02.905Z,11.2
2018-04-24T02:41:02.350Z,11.2
2018-04-24T02:42:00.954Z,11.2
2018-04-24T02:43:59.551Z,11.2
2018-04-24T02:44:58.885Z,11.2
2018-04-24T02:45:58.101Z,11.2
2018-04-24T02:46:57.443Z,11.2
2018-04-24T02:47:56.236Z,11.2
2018-04-24T02:48:55.453Z,11.2
2018-04-24T02:49:26.076Z,11.2
2018-04-24T02:49:56.713Z,11.1
2018-04-24T02:50:27.021Z,11.1
2018-04-24T02:50:57.554Z,11.1
2018-04-24T02:51:28.239Z,11.1
2018-04-24T02:51:58.874Z,11.1
2018-04-24T02:52:29.503Z,11.1
2018-04-24T02:53:51.475Z,11.1
2018-04-24T02:54:50.767Z,11.1
2018-04-24T02:55:49.865Z,11
2018-04-24T02:56:49.187Z,11
2018-04-24T02:57:48.621Z,11
2018-04-24T02:58:47.115Z,11
2018-04-24T02:59:46.730Z,11
2018-04-24T03:00:17.388Z,11
2018-04-24T03:00:47.630Z,11
2018-04-24T03:01:17.792Z,11
2018-04-24T03:01:48.430Z,11
2018-04-24T03:02:19.074Z,11
2018-04-24T03:02:49.836Z,11
2018-04-24T03:03:20.277Z,11
2018-04-24T03:04:42.635Z,10.9
2018-04-24T03:05:41.734Z,10.9
2018-04-24T03:06:41.051Z,10.8
2018-04-24T03:07:40.277Z,10.8
2018-04-24T03:08:39.495Z,10.8
2018-04-24T03:09:38.824Z,10.8
2018-04-24T03:10:37.824Z,10.7
2018-04-24T03:11:37.237Z,10.7
2018-04-24T03:12:36.060Z,10.7
2018-04-24T03:13:35.486Z,10.7
2018-04-24T03:14:34.709Z,10.7
2018-04-24T03:15:33.629Z,10.7
2018-04-24T03:16:32.947Z,10.7
2018-04-24T03:17:32.265Z,10.7
2018-04-24T03:18:31.074Z,10.7
2018-04-24T03:19:30.284Z,10.7
2018-04-24T03:20:29.382Z,10.7
2018-04-24T03:21:28.625Z,10.7
2018-04-24T03:22:27.732Z,10.6
2018-04-24T03:23:27.046Z,10.6
2018-04-24T03:24:26.163Z,10.6
2018-04-24T03:25:25.983Z,10.6
2018-04-24T03:26:24.579Z,10.6
2018-04-24T03:27:23.892Z,10.6
2018-04-24T03:28:23.202Z,10.6
2018-04-24T03:29:22.624Z,10.6
2018-04-24T03:30:21.549Z,10.5
2018-04-24T03:31:20.765Z,10.5
2018-04-24T03:32:20.184Z,10.5
2018-04-24T03:32:50.314Z,10.5
2018-04-24T03:33:20.850Z,10.5
2018-04-24T03:34:18.057Z,10.5
2018-04-24T03:35:17.368Z,10.5
2018-04-24T03:36:16.598Z,10.5
2018-04-24T03:38:14.588Z,10.5
2018-04-24T03:39:14.192Z,10.5
2018-04-24T03:40:13.511Z,10.4
2018-04-24T03:41:12.330Z,10.4
2018-04-24T03:42:11.648Z,10.4
2018-04-24T03:43:11.073Z,10.4
2018-04-24T03:44:10.070Z,10.4
2018-04-24T03:45:09.382Z,10.4
2018-04-24T03:46:08.710Z,10.4
2018-04-24T03:47:07.534Z,10.4
2018-04-24T03:49:06.232Z,10.3
2018-04-24T03:50:04.827Z,10.3
2018-04-24T03:51:04.169Z,10.3
2018-04-24T03:52:03.381Z,10.3
2018-04-24T03:53:02.727Z,10.3
2018-04-24T03:54:01.931Z,10.3
2018-04-24T03:55:01.040Z,10.3
2018-04-24T03:56:00.163Z,10.3
2018-04-24T03:56:59.487Z,10.3
2018-04-24T03:57:58.809Z,10.2
2018-04-24T03:58:57.618Z,10.2
2018-04-24T03:59:56.732Z,10.2
2018-04-24T04:00:55.745Z,10.2
2018-04-24T04:01:55.570Z,10.2
2018-04-24T04:02:54.282Z,10.2
2018-04-24T04:03:53.698Z,10.2
2018-04-24T04:04:53.011Z,10.2
2018-04-24T04:05:51.824Z,10.1
2018-04-24T04:06:51.034Z,10.1
2018-04-24T04:07:50.138Z,10.1
2018-04-24T04:08:49.346Z,10.1
2018-04-24T04:09:48.558Z,10.1
2018-04-24T04:10:47.880Z,10.1
2018-04-24T04:11:47.245Z,10.1
2018-04-24T04:12:46.170Z,10.1
2018-04-24T04:13:45.387Z,10.1
2018-04-24T04:14:44.701Z,10
2018-04-24T04:15:43.812Z,10
2018-04-24T04:16:42.929Z,10
2018-04-24T04:17:42.260Z,10
2018-04-24T04:18:41.188Z,10
2018-04-24T04:19:40.509Z,10.1
2018-04-24T04:20:39.722Z,10.1
2018-04-24T04:21:38.820Z,10.1
2018-04-24T04:22:37.917Z,10
2018-04-24T04:23:37.127Z,10
2018-04-24T04:24:36.235Z,10
2018-04-24T04:25:35.659Z,10
2018-04-24T04:26:34.577Z,10
2018-04-24T04:27:04.710Z,10
2018-04-24T04:27:35.239Z,10
2018-04-24T04:28:33.145Z,10
2018-04-24T04:29:32.469Z,10
2018-04-24T04:30:31.286Z,10
2018-04-24T04:31:30.500Z,10
2018-04-24T04:33:28.812Z,10
2018-04-24T04:34:28.139Z,10
2018-04-24T04:35:27.461Z,10
2018-04-24T04:36:26.169Z,10
2018-04-24T04:37:25.489Z,10
2018-04-24T04:38:24.810Z,10
2018-04-24T04:39:24.245Z,10
2018-04-24T04:40:22.951Z,10
2018-04-24T04:42:21.656Z,10
2018-04-24T04:43:20.861Z,10
2018-04-24T04:44:19.683Z,10
2018-04-24T04:45:19.117Z,10
2018-04-24T04:46:17.943Z,10.1
2018-04-24T04:47:17.051Z,10.1
2018-04-24T04:48:16.077Z,10.1
2018-04-24T04:49:15.792Z,10.1
2018-04-24T04:50:15.109Z,10.1
2018-04-24T04:51:13.921Z,10.2
2018-04-24T04:52:13.341Z,10.2
2018-04-24T04:53:12.666Z,10.2
2018-04-24T04:54:11.380Z,10.2
2018-04-24T04:55:10.585Z,10.3
2018-04-24T04:56:10.427Z,10.3
2018-04-24T04:57:09.373Z,10.3
2018-04-24T04:59:07.686Z,10.4
2018-04-24T05:00:06.295Z,10.4
2018-04-24T05:01:05.504Z,10.4
2018-04-24T05:02:04.708Z,10.4
2018-04-24T05:03:04.027Z,10.4
2018-04-24T05:04:03.037Z,10.4
2018-04-24T05:05:02.352Z,10.4
2018-04-24T05:06:01.452Z,10.5
2018-04-24T05:07:00.767Z,10.5
2018-04-24T05:08:00.191Z,10.5
2018-04-24T05:08:30.417Z,10.5
2018-04-24T05:09:00.963Z,10.5
2018-04-24T05:09:31.478Z,10.5
2018-04-24T05:10:01.900Z,10.5
2018-04-24T05:10:57.383Z,10.6
2018-04-24T05:11:56.572Z,10.6
2018-04-24T05:12:55.791Z,10.7
2018-04-24T05:13:55.116Z,10.8
2018-04-24T05:14:54.056Z,10.8
2018-04-24T05:15:53.368Z,10.8
2018-04-24T05:16:52.682Z,10.9
2018-04-24T05:17:51.286Z,10.9
2018-04-24T05:18:51.100Z,11
2018-04-24T05:19:21.411Z,11
2018-04-24T05:20:48.689Z,11
2018-04-24T05:22:47.395Z,11.1
2018-04-24T05:23:46.713Z,11.1
2018-04-24T05:24:45.814Z,11.1
2018-04-24T05:25:45.241Z,11.2
2018-04-24T05:26:43.849Z,11.2
2018-04-24T05:27:43.063Z,11.2
2018-04-24T05:28:42.783Z,11.3
2018-04-24T05:29:41.490Z,11.3
2018-04-24T05:30:40.587Z,11.3
2018-04-24T05:31:39.793Z,11.4
2018-04-24T05:32:39.213Z,11.4
2018-04-24T05:33:38.531Z,11.4
2018-04-24T05:34:37.964Z,11.4
2018-04-24T05:35:36.881Z,11.5
2018-04-24T05:36:36.202Z,11.5
2018-04-24T05:37:35.121Z,11.5
2018-04-24T05:38:34.549Z,11.5
2018-04-24T05:39:33.259Z,11.5
2018-04-24T05:40:32.686Z,11.5
2018-04-24T05:41:32.115Z,11.5
2018-04-24T05:42:30.929Z,11.4
2018-04-24T05:43:30.134Z,11.5
2018-04-24T05:44:29.453Z,11.5
2018-04-24T05:46:27.574Z,11.5
2018-04-24T05:47:26.896Z,11.5
2018-04-24T05:48:26.315Z,11.6
2018-04-24T05:49:25.136Z,11.6
2018-04-24T05:50:24.532Z,11.6
2018-04-24T05:51:23.740Z,11.6
2018-04-24T05:52:23.725Z,11.6
2018-04-24T05:53:22.184Z,11.7
2018-04-24T05:54:21.011Z,11.7
2018-04-24T05:55:20.218Z,11.7
2018-04-24T05:56:19.544Z,11.8
2018-04-24T05:56:50.058Z,11.8
2018-04-24T05:57:20.478Z,11.8
2018-04-24T05:58:18.296Z,11.8
2018-04-24T06:00:16.390Z,11.9
2018-04-24T06:01:15.605Z,11.9
2018-04-24T06:02:15.034Z,11.9
2018-04-24T06:03:13.630Z,11.9
2018-04-24T06:04:13.062Z,12
2018-04-24T06:05:12.277Z,12
2018-04-24T06:06:11.692Z,12
2018-04-24T06:08:09.789Z,12.1
2018-04-24T06:09:09.177Z,12.1
2018-04-24T06:10:08.685Z,12.1
2018-04-24T06:11:07.397Z,12.2
2018-04-24T06:12:06.722Z,12.2
2018-04-24T06:13:06.148Z,12.2
2018-04-24T06:14:04.860Z,12.2
2018-04-24T06:15:04.189Z,12.2
2018-04-24T06:17:02.533Z,12.2
2018-04-24T06:18:01.753Z,12.2
2018-04-24T06:19:01.079Z,12.2
2018-04-24T06:20:00.636Z,12.3
2018-04-24T06:20:59.561Z,12.3
2018-04-24T06:21:58.668Z,12.3
2018-04-24T06:22:57.871Z,12.3
2018-04-24T06:23:57.195Z,12.3
2018-04-24T06:24:56.405Z,12.3
2018-04-24T06:25:55.724Z,12.3
2018-04-24T06:26:54.842Z,12.3
2018-04-24T06:27:53.843Z,12.4
2018-04-24T06:28:53.157Z,12.4
2018-04-24T06:29:52.477Z,12.4
2018-04-24T06:30:51.579Z,12.5
2018-04-24T06:32:49.567Z,12.5
2018-04-24T06:33:49.494Z,12.5
2018-04-24T06:34:48.198Z,12.6
2018-04-24T06:35:47.414Z,12.6
2018-04-24T06:36:46.728Z,12.7
2018-04-24T06:37:17.134Z,12.7
2018-04-24T06:37:47.444Z,12.7
2018-04-24T06:38:18.165Z,12.7
2018-04-24T06:39:44.257Z,12.8
2018-04-24T06:40:43.682Z,12.8
2018-04-24T06:41:42.777Z,12.9
2018-04-24T06:42:42.201Z,12.9
2018-04-24T06:43:41.019Z,12.9
2018-04-24T06:44:40.223Z,13
2018-04-24T06:45:39.676Z,13
2018-04-24T06:46:38.893Z,13
2018-04-24T06:47:38.221Z,13.1
2018-04-24T06:48:37.035Z,13.1
2018-04-24T06:49:36.139Z,13.2
2018-04-24T06:50:35.851Z,13.2
2018-04-24T06:51:34.556Z,13.3
2018-04-24T06:52:34.060Z,13.3
2018-04-24T06:53:33.280Z,13.4
2018-04-24T06:54:32.500Z,13.5
2018-04-24T06:55:31.721Z,13.6
2018-04-24T06:56:31.161Z,13.7
2018-04-24T06:57:29.765Z,13.8
2018-04-24T06:58:28.997Z,13.8
2018-04-24T06:59:28.217Z,13.8
2018-04-24T07:00:27.305Z,13.9
2018-04-24T07:01:27.007Z,14
2018-04-24T07:02:26.331Z,14
2018-04-24T07:03:25.043Z,14.1
2018-04-24T07:04:24.758Z,14.1
2018-04-24T07:05:24.081Z,14.2
2018-04-24T07:07:22.181Z,14.2
2018-04-24T07:08:21.391Z,14.3
2018-04-24T07:09:20.608Z,14.3
2018-04-24T07:10:19.831Z,14.3
2018-04-24T07:12:18.542Z,14.3
2018-04-24T07:13:17.763Z,14.3
2018-04-24T07:14:16.976Z,14.3
2018-04-24T07:15:16.184Z,14.4
2018-04-24T07:16:15.611Z,14.4
2018-04-24T07:17:14.306Z,14.5
2018-04-24T07:18:13.410Z,14.5
2018-04-24T07:19:13.122Z,14.5
2018-04-24T07:20:12.467Z,14.6
2018-04-24T07:21:11.283Z,14.6
2018-04-24T07:22:11.008Z,14.6
2018-04-24T07:23:09.917Z,14.7
2018-04-24T07:25:08.737Z,14.7
2018-04-24T07:26:07.443Z,14.7
2018-04-24T07:27:07.120Z,14.7
2018-04-24T07:28:06.164Z,14.8
2018-04-24T07:29:05.276Z,14.8
2018-04-24T07:30:04.375Z,14.8
2018-04-24T07:31:03.579Z,14.9
2018-04-24T07:32:02.689Z,14.9
2018-04-24T07:34:01.198Z,14.8
2018-04-24T07:35:00.407Z,14.8
2018-04-24T07:36:00.347Z,14.8
2018-04-24T07:36:58.954Z,14.8
2018-04-24T07:37:58.167Z,14.8
2018-04-24T07:38:57.402Z,14.8
2018-04-24T07:39:57.241Z,14.8
2018-04-24T07:40:55.731Z,14.8
2018-04-24T07:41:55.665Z,14.8
2018-04-24T07:42:54.485Z,14.8
2018-04-24T07:43:53.689Z,14.8
2018-04-24T07:44:53.110Z,14.9
2018-04-24T07:45:52.343Z,14.9
2018-04-24T07:46:52.091Z,14.9
2018-04-24T07:47:50.915Z,14.9
2018-04-24T07:48:50.231Z,14.9
2018-04-24T07:49:49.516Z,14.9
2018-04-24T07:50:48.947Z,15
2018-04-24T07:51:48.157Z,15
2018-04-24T07:52:46.849Z,15.1
2018-04-24T07:53:46.454Z,15.2
2018-04-24T07:54:45.766Z,15.2
2018-04-24T07:55:44.870Z,15.3
2018-04-24T07:56:44.188Z,15.4
2018-04-24T07:57:43.310Z,15.4
2018-04-24T07:58:42.527Z,15.5
2018-04-24T07:59:41.741Z,15.6
2018-04-24T08:00:41.163Z,15.6
2018-04-24T08:01:40.479Z,15.6
2018-04-24T08:02:39.905Z,15.6
2018-04-24T08:03:39.126Z,15.7
2018-04-24T08:04:38.445Z,15.6
2018-04-24T08:05:37.156Z,15.7
2018-04-24T08:06:36.760Z,15.6
2018-04-24T08:07:36.087Z,15.7
2018-04-24T08:08:35.190Z,15.7
2018-04-24T08:09:34.503Z,15.6
2018-04-24T08:10:33.820Z,15.6
2018-04-24T08:11:33.032Z,15.6
2018-04-24T08:12:32.347Z,15.6
2018-04-24T08:13:02.885Z,15.6
2018-04-24T08:13:33.538Z,15.6
2018-04-24T08:14:04.075Z,15.6
2018-04-24T08:14:34.601Z,15.6
2018-04-24T08:15:05.247Z,15.6
2018-04-24T08:15:35.888Z,15.6
2018-04-24T08:16:06.415Z,15.6
2018-04-24T08:17:28.772Z,15.6
2018-04-24T08:18:28.192Z,15.6
2018-04-24T08:19:26.920Z,15.6
2018-04-24T08:21:25.625Z,15.7
2018-04-24T08:22:24.722Z,15.7
2018-04-24T08:23:24.049Z,15.8
2018-04-24T08:24:23.376Z,15.8
2018-04-24T08:25:22.584Z,15.8
2018-04-24T08:26:21.903Z,15.9
2018-04-24T08:26:52.428Z,15.9
2018-04-24T08:28:20.547Z,16
2018-04-24T08:29:19.962Z,16
2018-04-24T08:30:19.475Z,16
2018-04-24T08:31:18.402Z,16.1
2018-04-24T08:32:17.617Z,16.1
2018-04-24T08:33:17.043Z,16.1
2018-04-24T08:34:16.145Z,16
2018-04-24T08:35:15.295Z,16.1
2018-04-24T08:36:14.721Z,16.1
2018-04-24T08:37:13.934Z,16.1
2018-04-24T08:38:13.036Z,16.1
2018-04-24T08:39:12.648Z,16.2
2018-04-24T08:40:12.222Z,16.2
2018-04-24T08:41:11.036Z,16.2
2018-04-24T08:42:10.353Z,16.2
2018-04-24T08:43:09.457Z,16.2
2018-04-24T08:44:09.165Z,16.2
2018-04-24T08:45:08.594Z,16.2
2018-04-24T08:46:07.200Z,16.2
2018-04-24T08:47:06.808Z,16.2
2018-04-24T08:48:06.019Z,16.2
2018-04-24T08:49:05.483Z,16.3
2018-04-24T08:50:04.799Z,16.2
2018-04-24T08:51:04.009Z,16.2
2018-04-24T08:52:03.030Z,16.2
2018-04-24T08:53:02.034Z,16.2
2018-04-24T08:54:01.536Z,16.3
2018-04-24T08:55:00.867Z,16.3
2018-04-24T08:56:00.080Z,16.2
2018-04-24T08:56:31.214Z,16.2
2018-04-24T08:57:58.827Z,16.3
2018-04-24T08:59:57.538Z,16.3
2018-04-24T09:00:56.859Z,16.3
2018-04-24T09:01:56.294Z,16.3
2018-04-24T09:02:55.237Z,16.4
2018-04-24T09:03:54.675Z,16.3
2018-04-24T09:04:53.992Z,16.3
2018-04-24T09:05:53.092Z,16.4
2018-04-24T09:06:52.306Z,16.4
2018-04-24T09:07:51.511Z,16.5
2018-04-24T09:08:50.826Z,16.6
2018-04-24T09:09:50.033Z,16.6
2018-04-24T09:10:49.973Z,16.5
2018-04-24T09:11:48.747Z,16.5
2018-04-24T09:12:48.253Z,16.5
2018-04-24T09:13:47.568Z,16.6
2018-04-24T09:14:46.776Z,16.7
2018-04-24T09:15:46.107Z,16.8
2018-04-24T09:17:44.608Z,16.6
2018-04-24T09:18:43.703Z,16.6
2018-04-24T09:19:43.011Z,16.7
2018-04-24T09:20:42.215Z,16.7
2018-04-24T09:21:41.925Z,16.8
2018-04-24T09:22:41.020Z,16.8
2018-04-24T09:23:40.226Z,16.7
2018-04-24T09:24:39.513Z,16.8
2018-04-24T09:25:39.120Z,16.8
2018-04-24T09:26:38.332Z,16.7
2018-04-24T09:27:37.651Z,16.6
2018-04-24T09:28:36.863Z,16.6
2018-04-24T09:29:36.084Z,16.5
2018-04-24T09:30:35.188Z,16.6
2018-04-24T09:31:34.898Z,16.6
2018-04-24T09:32:34.216Z,16.6
2018-04-24T09:33:34.178Z,16.7
2018-04-24T09:34:32.519Z,16.8
2018-04-24T09:35:31.951Z,16.8
2018-04-24T09:36:31.269Z,16.8
2018-04-24T09:37:30.472Z,16.9
2018-04-24T09:38:29.798Z,17.1
2018-04-24T09:39:29.137Z,17.1
2018-04-24T09:40:28.248Z,17.2
2018-04-24T09:41:28.072Z,17.2
2018-04-24T09:42:27.280Z,17.1
2018-04-24T09:43:26.209Z,17
2018-04-24T09:44:25.482Z,16.9
2018-04-24T09:45:25.075Z,16.9
2018-04-24T09:46:24.402Z,16.9
2018-04-24T09:47:23.511Z,17
2018-04-24T09:48:22.818Z,17
2018-04-24T09:49:22.389Z,17.1
2018-04-24T09:50:21.207Z,17.1
2018-04-24T09:51:20.939Z,17.1
2018-04-24T09:51:51.075Z,17.1
2018-04-24T09:52:21.712Z,17.2
2018-04-24T09:52:52.344Z,17.2
2018-04-24T09:53:22.520Z,17.2
2018-04-24T09:54:18.822Z,17.3
2018-04-24T09:55:18.047Z,17.3
2018-04-24T09:56:17.251Z,17.4
2018-04-24T09:57:16.645Z,17.4
2018-04-24T09:58:15.863Z,17.4
2018-04-24T09:59:14.990Z,17.4
2018-04-24T10:00:14.827Z,17.5
2018-04-24T10:01:13.538Z,17.5
2018-04-24T10:02:13.208Z,17.5
2018-04-24T10:03:12.637Z,17.6
2018-04-24T10:04:11.847Z,17.6
2018-04-24T10:05:11.170Z,17.7
2018-04-24T10:06:10.484Z,17.8
2018-04-24T10:07:09.912Z,17.8
2018-04-24T10:08:08.834Z,17.8
2018-04-24T10:09:08.161Z,17.7
2018-04-24T10:10:07.270Z,17.7
2018-04-24T10:11:06.718Z,17.5
2018-04-24T10:12:06.054Z,17.5
2018-04-24T10:13:05.621Z,17.5
2018-04-24T10:14:05.062Z,17.6
2018-04-24T10:15:03.778Z,17.5
2018-04-24T10:16:03.291Z,17.5
2018-04-24T10:17:02.477Z,17.5
2018-04-24T10:18:02.090Z,17.7
2018-04-24T10:19:01.198Z,17.8
2018-04-24T10:20:00.525Z,17.7
2018-04-24T10:20:59.847Z,17.7
2018-04-24T10:21:59.161Z,17.7
2018-04-24T10:22:58.573Z,17.7
2018-04-24T10:23:57.891Z,17.8
2018-04-24T10:24:57.210Z,17.9
2018-04-24T10:25:56.418Z,17.8
2018-04-24T10:26:55.736Z,17.8
2018-04-24T10:27:54.828Z,17.9
2018-04-24T10:28:54.557Z,17.8
2018-04-24T10:29:53.665Z,17.8
2018-04-24T10:30:52.874Z,17.9
2018-04-24T10:31:52.606Z,17.8
2018-04-24T10:32:51.917Z,17.9
2018-04-24T10:33:51.234Z,17.9
2018-04-24T10:34:50.462Z,17.9
2018-04-24T10:35:49.669Z,18
2018-04-24T10:36:48.992Z,18
2018-04-24T10:37:48.200Z,17.9
2018-04-24T10:39:46.797Z,17.9
2018-04-24T10:40:46.516Z,17.8
2018-04-24T10:41:45.833Z,17.9
2018-04-24T10:42:45.042Z,17.9
2018-04-24T10:43:44.739Z,18
2018-04-24T10:44:43.349Z,18.1
2018-04-24T10:45:43.059Z,18.1
2018-04-24T10:46:42.266Z,18.2
2018-04-24T10:47:41.591Z,18.2
2018-04-24T10:48:40.954Z,18.3
2018-04-24T10:49:40.279Z,18.3
2018-04-24T10:50:39.602Z,18.3
2018-04-24T10:51:39.549Z,18.3
2018-04-24T10:52:38.489Z,18.4
2018-04-24T10:53:37.821Z,18.3
2018-04-24T10:54:36.923Z,18.2
2018-04-24T10:55:36.138Z,18.1
2018-04-24T10:56:35.346Z,18.1
2018-04-24T10:57:34.953Z,18.1
2018-04-24T10:58:34.050Z,18
2018-04-24T10:59:33.764Z,17.9
2018-04-24T11:00:33.200Z,18
2018-04-24T11:01:32.155Z,18.1
2018-04-24T11:02:31.572Z,18.1
2018-04-24T11:03:30.778Z,18.1
2018-04-24T11:04:30.203Z,18.1
2018-04-24T11:05:29.517Z,18.1
2018-04-24T11:08:27.608Z,18.1
2018-04-24T11:09:26.603Z,18.1
2018-04-24T11:10:26.428Z,18
2018-04-24T11:11:25.643Z,17.8
2018-04-24T11:12:25.018Z,17.8
2018-04-24T11:13:24.330Z,17.8
2018-04-24T11:14:23.316Z,17.8
2018-04-24T11:15:22.915Z,17.8
2018-04-24T11:16:22.351Z,17.8
2018-04-24T11:17:21.772Z,17.8
2018-04-24T11:18:20.876Z,17.8
2018-04-24T11:19:20.304Z,17.8
2018-04-24T11:20:19.621Z,17.8
2018-04-24T11:21:19.211Z,17.9
2018-04-24T11:22:18.324Z,17.8
2018-04-24T11:23:17.538Z,17.8
2018-04-24T11:24:16.863Z,17.8
2018-04-24T11:25:15.859Z,17.8
2018-04-24T11:26:15.657Z,17.7
2018-04-24T11:27:15.078Z,17.6
2018-04-24T11:28:14.307Z,17.6
2018-04-24T11:29:13.309Z,17.6
2018-04-24T11:30:13.315Z,17.6
2018-04-24T11:32:11.425Z,17.5
2018-04-24T11:33:11.244Z,17.5
2018-04-24T11:34:10.920Z,17.5
2018-04-24T11:35:09.856Z,17.5
2018-04-24T11:36:09.072Z,17.4
2018-04-24T11:37:08.396Z,17.4
2018-04-24T11:38:07.710Z,17.4
2018-04-24T11:39:07.024Z,17.5
2018-04-24T11:40:06.016Z,17.5
2018-04-24T11:41:05.619Z,17.5
2018-04-24T11:42:04.830Z,17.5
2018-04-24T11:43:04.070Z,17.4
2018-04-24T11:44:03.671Z,17.4
2018-04-24T11:45:02.913Z,17.4
2018-04-24T11:46:02.350Z,17.4
2018-04-24T11:47:01.677Z,17.3
2018-04-24T11:48:01.003Z,17.3
2018-04-24T11:49:00.207Z,17.3
2018-04-24T11:49:59.673Z,17.3
2018-04-24T11:50:58.662Z,17.4
2018-04-24T11:51:58.481Z,17.3
2018-04-24T11:53:56.774Z,17.2
2018-04-24T11:54:56.101Z,17.2
2018-04-24T11:55:55.420Z,17.2
2018-04-24T11:56:54.848Z,17.2
2018-04-24T11:57:54.167Z,17.2
2018-04-24T11:58:53.482Z,17.2
2018-04-24T12:00:52.084Z,17.3
2018-04-24T12:01:51.811Z,17.2
2018-04-24T12:02:51.703Z,17.2
2018-04-24T12:05:48.811Z,17.2
2018-04-24T12:06:48.027Z,17.3
2018-04-24T12:07:47.349Z,17.3
2018-04-24T12:08:46.671Z,17.2
2018-04-24T12:09:45.876Z,17.2
2018-04-24T12:10:45.698Z,17.2
2018-04-24T12:11:45.126Z,17.2
2018-04-24T12:12:43.725Z,17.2
2018-04-24T12:13:43.339Z,17.1
2018-04-24T12:14:42.688Z,17.1
2018-04-24T12:15:42.205Z,17.1
2018-04-24T12:16:41.524Z,17.1
2018-04-24T12:17:40.835Z,17.1
2018-04-24T12:18:40.051Z,17
2018-04-24T12:19:39.367Z,17
2018-04-24T12:20:38.688Z,17
2018-04-24T12:21:37.853Z,17
2018-04-24T12:22:37.182Z,17
2018-04-24T12:23:36.609Z,16.9
2018-04-24T12:24:35.930Z,16.9
2018-04-24T12:26:34.419Z,16.9
2018-04-24T12:27:05.040Z,16.9
2018-04-24T12:28:33.441Z,16.9
2018-04-24T12:29:32.865Z,16.9
2018-04-24T12:30:32.427Z,16.9
2018-04-24T12:31:31.331Z,16.9
2018-04-24T12:32:30.668Z,16.9
2018-04-24T12:33:29.983Z,16.9
2018-04-24T12:34:29.103Z,16.9
2018-04-24T12:35:28.094Z,16.9
2018-04-24T12:37:27.312Z,16.9
2018-04-24T12:39:25.810Z,16.9
2018-04-24T12:40:25.241Z,16.8
2018-04-24T12:41:24.564Z,16.8
2018-04-24T12:43:22.950Z,16.9
2018-04-24T12:44:22.380Z,16.8
2018-04-24T12:45:21.810Z,16.8
2018-04-24T12:46:21.136Z,16.8
2018-04-24T12:47:20.566Z,16.8
2018-04-24T12:48:19.572Z,16.8
2018-04-24T12:49:18.891Z,16.8
2018-04-24T12:50:18.320Z,16.8
2018-04-24T12:51:17.630Z,16.8
2018-04-24T12:52:17.073Z,16.8
2018-04-24T12:53:16.493Z,16.8
2018-04-24T12:54:15.932Z,16.8
2018-04-24T12:55:14.426Z,16.8
2018-04-24T12:56:14.210Z,16.8
2018-04-24T12:57:13.439Z,16.7
2018-04-24T12:58:12.868Z,16.7
2018-04-24T12:59:12.767Z,16.7
2018-04-24T13:00:11.636Z,16.7
2018-04-24T13:01:11.061Z,16.7
2018-04-24T13:02:09.886Z,16.7
2018-04-24T13:03:09.596Z,16.7
2018-04-24T13:04:09.021Z,16.6
2018-04-24T13:05:08.012Z,16.6
2018-04-24T13:06:07.242Z,16.6
2018-04-24T13:07:06.458Z,16.6
2018-04-24T13:08:05.786Z,16.7
2018-04-24T13:09:05.052Z,16.7
2018-04-24T13:10:04.367Z,16.7
2018-04-24T13:11:03.810Z,16.7
2018-04-24T13:12:03.044Z,16.7
2018-04-24T13:13:02.254Z,16.7
2018-04-24T13:14:01.869Z,16.7
2018-04-24T13:15:01.194Z,16.8
2018-04-24T13:16:00.521Z,16.8
2018-04-24T13:16:59.722Z,16.7
2018-04-24T13:17:59.034Z,16.7
2018-04-24T13:18:58.359Z,16.7
2018-04-24T13:19:57.672Z,16.6
2018-04-24T13:20:57.095Z,16.6
2018-04-24T13:21:56.206Z,16.5
2018-04-24T13:22:26.833Z,16.5
2018-04-24T13:22:57.567Z,16.5
2018-04-24T13:23:54.974Z,16.3
2018-04-24T13:24:54.189Z,16.3
2018-04-24T13:25:53.834Z,16.3
2018-04-24T13:26:52.650Z,16.3
2018-04-24T13:27:51.650Z,16.3
2018-04-24T13:28:51.584Z,16.3
2018-04-24T13:29:50.909Z,16.2
2018-04-24T13:30:50.044Z,16.2
2018-04-24T13:31:49.369Z,16.2
2018-04-24T13:32:48.687Z,16.2
2018-04-24T13:34:47.391Z,16.1
2018-04-24T13:35:46.612Z,16.1